sensor_id;sensor_type;location;lat;lon;timestamp;pressure;altitude;pressure_sealevel;temperature;humidity
9189;BME280;34313;50.780;6.084;2023-03-25T00:02:21;98363.06;;;8.17;98.47
9189;BME280;34313;50.780;6.084;2023-03-25T00:04:52;98367.22;;;8.07;97.95
9189;BME280;34313;50.780;6.084;2023-03-25T00:07:19;98366.16;;;8.09;98.32
9189;BME280;34313;50.780;6.084;2023-03-25T00:09:45;98365.13;;;8.12;98.41
9189;BME280;34313;50.780;6.084;2023-03-25T00:12:12;98368.16;;;8.19;99.00
9189;BME280;34313;50.780;6.084;2023-03-25T00:14:37;98351.28;;;8.23;99.33
9189;BME280;34313;50.780;6.084;2023-03-25T00:17:03;98363.16;;;8.28;99.95
9189;BME280;34313;50.780;6.084;2023-03-25T00:19:28;98369.66;;;8.23;100.00
9189;BME280;34313;50.780;6.084;2023-03-25T00:21:54;98380.81;;;8.26;100.00
9189;BME280;34313;50.780;6.084;2023-03-25T00:24:19;98378.19;;;8.26;100.00
9189;BME280;34313;50.780;6.084;2023-03-25T00:26:46;98366.94;;;8.24;100.00
9189;BME280;34313;50.780;6.084;2023-03-25T00:29:13;98369.03;;;8.19;100.00
9189;BME280;34313;50.780;6.084;2023-03-25T00:31:39;98369.88;;;8.20;100.00
9189;BME280;34313;50.780;6.084;2023-03-25T00:34:05;98373.84;;;8.12;100.00
9189;BME280;34313;50.780;6.084;2023-03-25T00:36:30;98370.16;;;8.02;100.00
9189;BME280;34313;50.780;6.084;2023-03-25T00:38:55;98370.56;;;7.96;100.00
9189;BME280;34313;50.780;6.084;2023-03-25T00:41:23;98370.94;;;7.90;100.00
9189;BME280;34313;50.780;6.084;2023-03-25T00:43:54;98374.41;;;7.90;100.00
9189;BME280;34313;50.780;6.084;2023-03-25T00:46:21;98369.47;;;7.86;100.00
9189;BME280;34313;50.780;6.084;2023-03-25T00:48:47;98358.03;;;7.87;100.00
9189;BME280;34313;50.780;6.084;2023-03-25T00:51:13;98358.63;;;7.78;100.00
9189;BME280;34313;50.780;6.084;2023-03-25T00:53:43;98358.13;;;7.85;100.00
9189;BME280;34313;50.780;6.084;2023-03-25T00:56:09;98356.47;;;7.84;100.00
9189;BME280;34313;50.780;6.084;2023-03-25T00:58:35;98368.63;;;7.85;100.00
9189;BME280;34313;50.780;6.084;2023-03-25T01:01:09;98368.03;;;7.94;100.00
9189;BME280;34313;50.780;6.084;2023-03-25T01:03:38;98380.63;;;8.02;100.00
9189;BME280;34313;50.780;6.084;2023-03-25T01:06:14;98370.59;;;8.09;100.00
9189;BME280;34313;50.780;6.084;2023-03-25T01:08:41;98368.06;;;8.07;100.00
9189;BME280;34313;50.780;6.084;2023-03-25T01:11:19;98365.97;;;8.12;100.00
9189;BME280;34313;50.780;6.084;2023-03-25T01:13:45;98371.75;;;8.18;100.00
9189;BME280;34313;50.780;6.084;2023-03-25T01:16:11;98364.09;;;8.14;100.00
9189;BME280;34313;50.780;6.084;2023-03-25T01:18:36;98363.16;;;8.16;100.00
9189;BME280;34313;50.780;6.084;2023-03-25T01:21:04;98370.50;;;8.23;100.00
9189;BME280;34313;50.780;6.084;2023-03-25T01:23:30;98369.97;;;8.18;100.00
9189;BME280;34313;50.780;6.084;2023-03-25T01:25:55;98357.47;;;8.22;100.00
9189;BME280;34313;50.780;6.084;2023-03-25T01:28:20;98342.25;;;8.14;100.00
9189;BME280;34313;50.780;6.084;2023-03-25T01:30:46;98338.03;;;7.99;100.00
9189;BME280;34313;50.780;6.084;2023-03-25T01:33:11;98342.44;;;7.98;100.00
9189;BME280;34313;50.780;6.084;2023-03-25T01:35:36;98361.44;;;8.02;100.00
9189;BME280;34313;50.780;6.084;2023-03-25T01:38:01;98341.19;;;8.04;100.00
9189;BME280;34313;50.780;6.084;2023-03-25T01:40:28;98324.06;;;7.98;100.00
9189;BME280;34313;50.780;6.084;2023-03-25T01:42:53;98327.81;;;7.94;100.00
9189;BME280;34313;50.780;6.084;2023-03-25T01:45:22;98334.47;;;8.00;100.00
9189;BME280;34313;50.780;6.084;2023-03-25T01:47:51;98334.13;;;7.91;100.00
9189;BME280;34313;50.780;6.084;2023-03-25T01:50:19;98325.91;;;7.83;100.00
9189;BME280;34313;50.780;6.084;2023-03-25T01:52:48;98322.00;;;7.76;100.00
9189;BME280;34313;50.780;6.084;2023-03-25T01:55:16;98324.78;;;7.60;100.00
9189;BME280;34313;50.780;6.084;2023-03-25T01:57:44;98326.88;;;7.55;100.00
9189;BME280;34313;50.780;6.084;2023-03-25T02:00:12;98327.19;;;7.50;100.00
9189;BME280;34313;50.780;6.084;2023-03-25T02:02:38;98329.44;;;7.42;100.00
9189;BME280;34313;50.780;6.084;2023-03-25T02:05:28;98325.22;;;7.39;100.00
9189;BME280;34313;50.780;6.084;2023-03-25T02:07:55;98334.38;;;7.47;100.00
9189;BME280;34313;50.780;6.084;2023-03-25T02:10:22;98334.94;;;7.52;100.00
9189;BME280;34313;50.780;6.084;2023-03-25T02:12:48;98326.69;;;7.58;100.00
9189;BME280;34313;50.780;6.084;2023-03-25T02:15:15;98331.50;;;7.64;100.00
9189;BME280;34313;50.780;6.084;2023-03-25T02:28:47;98324.78;;;7.87;100.00
9189;BME280;34313;50.780;6.084;2023-03-25T02:34:21;98338.63;;;7.89;100.00
9189;BME280;34313;50.780;6.084;2023-03-25T02:39:40;98329.50;;;7.95;100.00
9189;BME280;34313;50.780;6.084;2023-03-25T02:42:29;98334.66;;;7.97;100.00
9189;BME280;34313;50.780;6.084;2023-03-25T02:45:19;98328.88;;;7.91;100.00
9189;BME280;34313;50.780;6.084;2023-03-25T02:47:50;98329.81;;;7.90;100.00
9189;BME280;34313;50.780;6.084;2023-03-25T02:50:21;98332.66;;;7.87;100.00
9189;BME280;34313;50.780;6.084;2023-03-25T02:52:52;98334.00;;;7.80;100.00
9189;BME280;34313;50.780;6.084;2023-03-25T02:55:19;98332.69;;;7.73;100.00
9189;BME280;34313;50.780;6.084;2023-03-25T02:57:48;98333.47;;;7.75;100.00
9189;BME280;34313;50.780;6.084;2023-03-25T03:00:19;98330.84;;;7.75;100.00
9189;BME280;34313;50.780;6.084;2023-03-25T03:02:58;98320.53;;;7.72;100.00
9189;BME280;34313;50.780;6.084;2023-03-25T03:05:32;98325.06;;;7.70;100.00
9189;BME280;34313;50.780;6.084;2023-03-25T03:11:14;98325.44;;;7.64;100.00
9189;BME280;34313;50.780;6.084;2023-03-25T03:16:48;98323.22;;;7.57;100.00
9189;BME280;34313;50.780;6.084;2023-03-25T03:24:59;98322.78;;;7.51;100.00
9189;BME280;34313;50.780;6.084;2023-03-25T03:32:42;98319.97;;;7.54;100.00
9189;BME280;34313;50.780;6.084;2023-03-25T03:35:19;98324.91;;;7.58;100.00
9189;BME280;34313;50.780;6.084;2023-03-25T03:37:53;98319.09;;;7.53;100.00
9189;BME280;34313;50.780;6.084;2023-03-25T03:40:22;98326.41;;;7.63;100.00
9189;BME280;34313;50.780;6.084;2023-03-25T03:42:55;98340.78;;;7.70;100.00
9189;BME280;34313;50.780;6.084;2023-03-25T03:45:26;98339.63;;;7.74;100.00
9189;BME280;34313;50.780;6.084;2023-03-25T03:47:56;98329.78;;;7.78;100.00
9189;BME280;34313;50.780;6.084;2023-03-25T03:50:27;98334.50;;;7.85;100.00
9189;BME280;34313;50.780;6.084;2023-03-25T03:53:05;98332.13;;;7.82;100.00
9189;BME280;34313;50.780;6.084;2023-03-25T03:55:39;98317.81;;;7.73;99.95
9189;BME280;34313;50.780;6.084;2023-03-25T03:58:13;98339.13;;;7.82;100.00
9189;BME280;34313;50.780;6.084;2023-03-25T04:01:05;98345.44;;;7.92;99.48
9189;BME280;34313;50.780;6.084;2023-03-25T04:03:40;98349.03;;;7.91;98.48
9189;BME280;34313;50.780;6.084;2023-03-25T04:06:26;98339.81;;;7.98;97.88
9189;BME280;34313;50.780;6.084;2023-03-25T04:09:01;98353.13;;;7.95;98.07
9189;BME280;34313;50.780;6.084;2023-03-25T04:11:36;98343.16;;;8.00;97.81
9189;BME280;34313;50.780;6.084;2023-03-25T04:14:04;98343.16;;;8.00;97.69
9189;BME280;34313;50.780;6.084;2023-03-25T04:16:32;98343.50;;;8.08;97.35
9189;BME280;34313;50.780;6.084;2023-03-25T04:18:57;98333.00;;;8.08;97.13
9189;BME280;34313;50.780;6.084;2023-03-25T04:21:23;98333.94;;;8.07;95.93
9189;BME280;34313;50.780;6.084;2023-03-25T04:23:49;98339.44;;;8.17;95.26
9189;BME280;34313;50.780;6.084;2023-03-25T04:26:16;98350.88;;;8.16;95.14
9189;BME280;34313;50.780;6.084;2023-03-25T04:28:41;98343.81;;;8.17;95.37
9189;BME280;34313;50.780;6.084;2023-03-25T04:31:13;98341.09;;;8.18;94.79
9189;BME280;34313;50.780;6.084;2023-03-25T04:33:43;98336.47;;;8.22;94.75
9189;BME280;34313;50.780;6.084;2023-03-25T04:36:13;98356.44;;;8.24;94.43
9189;BME280;34313;50.780;6.084;2023-03-25T04:38:39;98354.75;;;8.23;93.73
9189;BME280;34313;50.780;6.084;2023-03-25T04:41:05;98339.44;;;8.17;93.70
9189;BME280;34313;50.780;6.084;2023-03-25T04:43:31;98347.84;;;8.22;93.73
9189;BME280;34313;50.780;6.084;2023-03-25T04:45:57;98345.94;;;8.24;94.23
9189;BME280;34313;50.780;6.084;2023-03-25T04:48:29;98341.22;;;8.29;93.81
9189;BME280;34313;50.780;6.084;2023-03-25T04:50:55;98344.69;;;8.30;93.36
9189;BME280;34313;50.780;6.084;2023-03-25T04:53:23;98339.25;;;8.33;93.58
9189;BME280;34313;50.780;6.084;2023-03-25T04:55:49;98346.38;;;8.31;93.59
9189;BME280;34313;50.780;6.084;2023-03-25T04:58:16;98347.84;;;8.35;93.76
9189;BME280;34313;50.780;6.084;2023-03-25T05:00:46;98343.97;;;8.41;93.81
9189;BME280;34313;50.780;6.084;2023-03-25T05:03:16;98353.00;;;8.37;94.11
9189;BME280;34313;50.780;6.084;2023-03-25T05:05:47;98350.47;;;8.35;94.01
9189;BME280;34313;50.780;6.084;2023-03-25T05:08:13;98344.25;;;8.36;93.62
9189;BME280;34313;50.780;6.084;2023-03-25T05:10:39;98337.34;;;8.35;93.50
9189;BME280;34313;50.780;6.084;2023-03-25T05:13:06;98341.22;;;8.29;93.11
9189;BME280;34313;50.780;6.084;2023-03-25T05:15:33;98333.03;;;8.34;92.66
9189;BME280;34313;50.780;6.084;2023-03-25T05:18:09;98337.34;;;8.35;92.65
9189;BME280;34313;50.780;6.084;2023-03-25T05:20:37;98347.34;;;8.43;92.70
9189;BME280;34313;50.780;6.084;2023-03-25T05:23:05;98345.75;;;8.40;92.64
9189;BME280;34313;50.780;6.084;2023-03-25T05:25:30;98337.88;;;8.40;92.41
9189;BME280;34313;50.780;6.084;2023-03-25T05:27:59;98332.53;;;8.42;92.36
9189;BME280;34313;50.780;6.084;2023-03-25T05:30:30;98328.41;;;8.38;92.07
9189;BME280;34313;50.780;6.084;2023-03-25T05:32:57;98338.63;;;8.42;92.17
9189;BME280;34313;50.780;6.084;2023-03-25T05:35:26;98327.56;;;8.37;91.86
9189;BME280;34313;50.780;6.084;2023-03-25T05:37:52;98335.91;;;8.44;92.07
9189;BME280;34313;50.780;6.084;2023-03-25T05:40:17;98346.94;;;8.49;91.81
9189;BME280;34313;50.780;6.084;2023-03-25T05:42:43;98355.75;;;8.48;92.50
9189;BME280;34313;50.780;6.084;2023-03-25T05:45:15;98351.56;;;8.45;92.19
9189;BME280;34313;50.780;6.084;2023-03-25T05:47:41;98350.69;;;8.45;92.51
9189;BME280;34313;50.780;6.084;2023-03-25T05:50:07;98351.34;;;8.48;91.89
9189;BME280;34313;50.780;6.084;2023-03-25T05:52:34;98353.84;;;8.50;91.94
9189;BME280;34313;50.780;6.084;2023-03-25T05:55:01;98353.25;;;8.59;91.70
9189;BME280;34313;50.780;6.084;2023-03-25T05:57:27;98353.44;;;8.56;91.51
9189;BME280;34313;50.780;6.084;2023-03-25T05:59:52;98349.25;;;8.66;91.79
9189;BME280;34313;50.780;6.084;2023-03-25T06:02:18;98354.94;;;8.73;91.37
9189;BME280;34313;50.780;6.084;2023-03-25T06:04:43;98354.16;;;8.71;91.65
9189;BME280;34313;50.780;6.084;2023-03-25T06:07:11;98365.94;;;8.91;91.97
9189;BME280;34313;50.780;6.084;2023-03-25T06:09:44;98370.25;;;9.05;92.73
9189;BME280;34313;50.780;6.084;2023-03-25T06:12:15;98379.09;;;8.91;95.38
9189;BME280;34313;50.780;6.084;2023-03-25T06:14:42;98381.69;;;8.78;97.65
9189;BME280;34313;50.780;6.084;2023-03-25T06:17:09;98387.94;;;8.64;100.00
9189;BME280;34313;50.780;6.084;2023-03-25T06:19:35;98383.50;;;8.52;100.00
9189;BME280;34313;50.780;6.084;2023-03-25T06:22:08;98400.78;;;8.42;100.00
9189;BME280;34313;50.780;6.084;2023-03-25T06:24:35;98408.75;;;8.40;100.00
9189;BME280;34313;50.780;6.084;2023-03-25T06:27:01;98397.94;;;8.32;100.00
9189;BME280;34313;50.780;6.084;2023-03-25T06:29:26;98388.34;;;8.18;100.00
9189;BME280;34313;50.780;6.084;2023-03-25T06:31:52;98398.00;;;8.18;100.00
9189;BME280;34313;50.780;6.084;2023-03-25T06:34:17;98399.19;;;8.26;100.00
9189;BME280;34313;50.780;6.084;2023-03-25T06:36:43;98391.78;;;8.19;100.00
9189;BME280;34313;50.780;6.084;2023-03-25T06:39:08;98397.59;;;8.24;100.00
9189;BME280;34313;50.780;6.084;2023-03-25T06:41:34;98392.56;;;8.33;100.00
9189;BME280;34313;50.780;6.084;2023-03-25T06:44:02;98395.88;;;8.50;100.00
9189;BME280;34313;50.780;6.084;2023-03-25T06:46:27;98391.69;;;8.60;100.00
9189;BME280;34313;50.780;6.084;2023-03-25T06:48:53;98404.09;;;8.71;100.00
9189;BME280;34313;50.780;6.084;2023-03-25T06:51:18;98397.25;;;8.68;100.00
9189;BME280;34313;50.780;6.084;2023-03-25T06:53:46;98405.25;;;8.54;100.00
9189;BME280;34313;50.780;6.084;2023-03-25T06:56:11;98397.88;;;8.46;100.00
9189;BME280;34313;50.780;6.084;2023-03-25T06:58:36;98404.91;;;8.46;100.00
9189;BME280;34313;50.780;6.084;2023-03-25T07:01:02;98393.31;;;8.36;100.00
9189;BME280;34313;50.780;6.084;2023-03-25T07:03:31;98408.59;;;8.56;100.00
9189;BME280;34313;50.780;6.084;2023-03-25T07:05:56;98410.06;;;8.60;100.00
9189;BME280;34313;50.780;6.084;2023-03-25T07:08:21;98414.50;;;8.73;100.00
9189;BME280;34313;50.780;6.084;2023-03-25T07:10:48;98409.56;;;8.81;100.00
9189;BME280;34313;50.780;6.084;2023-03-25T07:13:13;98417.00;;;8.74;100.00
9189;BME280;34313;50.780;6.084;2023-03-25T07:15:38;98417.00;;;8.74;99.42
9189;BME280;34313;50.780;6.084;2023-03-25T07:18:04;98421.63;;;8.70;99.57
9189;BME280;34313;50.780;6.084;2023-03-25T07:20:29;98427.00;;;8.69;99.34
9189;BME280;34313;50.780;6.084;2023-03-25T07:22:55;98430.59;;;8.81;98.42
9189;BME280;34313;50.780;6.084;2023-03-25T07:25:21;98420.50;;;8.87;96.96
9189;BME280;34313;50.780;6.084;2023-03-25T07:27:46;98417.97;;;8.99;96.15
9189;BME280;34313;50.780;6.084;2023-03-25T07:30:12;98414.25;;;9.27;94.00
9189;BME280;34313;50.780;6.084;2023-03-25T07:32:38;98414.69;;;9.21;92.58
9189;BME280;34313;50.780;6.084;2023-03-25T07:35:04;98415.78;;;9.42;91.22
9189;BME280;34313;50.780;6.084;2023-03-25T07:37:29;98412.84;;;9.34;90.71
9189;BME280;34313;50.780;6.084;2023-03-25T07:39:55;98413.00;;;9.20;89.99
9189;BME280;34313;50.780;6.084;2023-03-25T07:42:20;98426.09;;;9.45;89.60
9189;BME280;34313;50.780;6.084;2023-03-25T07:44:45;98417.84;;;11.61;79.44
9189;BME280;34313;50.780;6.084;2023-03-25T07:47:11;98418.72;;;13.72;67.27
9189;BME280;34313;50.780;6.084;2023-03-25T07:49:36;98415.25;;;15.26;60.95
9189;BME280;34313;50.780;6.084;2023-03-25T07:52:05;98412.69;;;16.36;55.72
9189;BME280;34313;50.780;6.084;2023-03-25T07:54:30;98410.00;;;16.18;54.54
9189;BME280;34313;50.780;6.084;2023-03-25T07:56:55;98407.75;;;15.49;56.24
9189;BME280;34313;50.780;6.084;2023-03-25T07:59:21;98419.63;;;15.83;55.56
9189;BME280;34313;50.780;6.084;2023-03-25T08:01:47;98420.97;;;16.77;52.31
9189;BME280;34313;50.780;6.084;2023-03-25T08:04:12;98425.31;;;16.60;51.52
9189;BME280;34313;50.780;6.084;2023-03-25T08:06:38;98428.28;;;16.75;51.71
9189;BME280;34313;50.780;6.084;2023-03-25T08:09:04;98431.59;;;17.98;48.12
9189;BME280;34313;50.780;6.084;2023-03-25T08:11:29;98439.13;;;18.03;47.85
9189;BME280;34313;50.780;6.084;2023-03-25T08:13:54;98441.19;;;16.88;48.85
9189;BME280;34313;50.780;6.084;2023-03-25T08:16:20;98448.63;;;15.76;51.58
9189;BME280;34313;50.780;6.084;2023-03-25T08:18:45;98448.50;;;14.73;54.20
9189;BME280;34313;50.780;6.084;2023-03-25T08:21:11;98455.78;;;14.71;55.30
9189;BME280;34313;50.780;6.084;2023-03-25T08:23:37;98458.81;;;14.86;54.70
9189;BME280;34313;50.780;6.084;2023-03-25T08:26:02;98460.75;;;14.06;56.09
9189;BME280;34313;50.780;6.084;2023-03-25T08:28:29;98469.09;;;13.30;59.71
9189;BME280;34313;50.780;6.084;2023-03-25T08:30:55;98470.69;;;13.12;68.16
9189;BME280;34313;50.780;6.084;2023-03-25T08:33:22;98464.09;;;13.48;62.74
9189;BME280;34313;50.780;6.084;2023-03-25T08:35:51;98466.59;;;13.90;57.78
9189;BME280;34313;50.780;6.084;2023-03-25T08:38:16;98459.75;;;13.47;58.74
9189;BME280;34313;50.780;6.084;2023-03-25T08:40:42;98465.81;;;12.86;59.83
9189;BME280;34313;50.780;6.084;2023-03-25T08:43:09;98462.19;;;12.66;61.42
9189;BME280;34313;50.780;6.084;2023-03-25T08:45:34;98472.94;;;12.21;63.27
9189;BME280;34313;50.780;6.084;2023-03-25T08:48:01;98464.69;;;12.14;63.78
9189;BME280;34313;50.780;6.084;2023-03-25T08:50:28;98463.00;;;12.13;63.92
9189;BME280;34313;50.780;6.084;2023-03-25T08:52:55;98472.44;;;12.27;63.53
9189;BME280;34313;50.780;6.084;2023-03-25T08:55:22;98473.78;;;12.21;63.16
9189;BME280;34313;50.780;6.084;2023-03-25T08:57:47;98464.75;;;12.56;62.13
9189;BME280;34313;50.780;6.084;2023-03-25T09:00:13;98462.78;;;12.91;60.71
9189;BME280;34313;50.780;6.084;2023-03-25T09:02:39;98469.72;;;13.34;58.73
9189;BME280;34313;50.780;6.084;2023-03-25T09:05:06;98469.19;;;13.40;58.49
9189;BME280;34313;50.780;6.084;2023-03-25T09:07:32;98456.97;;;12.97;59.82
9189;BME280;34313;50.780;6.084;2023-03-25T09:09:58;98474.13;;;12.81;60.78
9189;BME280;34313;50.780;6.084;2023-03-25T09:12:23;98464.91;;;12.76;61.34
9189;BME280;34313;50.780;6.084;2023-03-25T09:14:48;98461.22;;;12.67;61.33
9189;BME280;34313;50.780;6.084;2023-03-25T09:17:13;98452.94;;;12.39;62.24
9189;BME280;34313;50.780;6.084;2023-03-25T09:19:39;98470.47;;;12.40;62.26
9189;BME280;34313;50.780;6.084;2023-03-25T09:22:05;98477.13;;;12.35;62.55
9189;BME280;34313;50.780;6.084;2023-03-25T09:24:31;98471.09;;;12.65;62.22
9189;BME280;34313;50.780;6.084;2023-03-25T09:26:59;98479.56;;;12.80;61.88
9189;BME280;34313;50.780;6.084;2023-03-25T09:29:25;98472.31;;;12.82;61.69
9189;BME280;34313;50.780;6.084;2023-03-25T09:31:50;98470.88;;;12.78;61.79
9189;BME280;34313;50.780;6.084;2023-03-25T09:34:15;98487.28;;;12.72;61.68
9189;BME280;34313;50.780;6.084;2023-03-25T09:36:41;98485.94;;;12.77;62.90
9189;BME280;34313;50.780;6.084;2023-03-25T09:39:06;98476.03;;;12.58;63.19
9189;BME280;34313;50.780;6.084;2023-03-25T09:45:01;98474.00;;;12.83;62.01
9189;BME280;34313;50.780;6.084;2023-03-25T09:47:29;98479.56;;;13.01;61.84
9189;BME280;34313;50.780;6.084;2023-03-25T09:50:00;98477.66;;;13.34;59.90
9189;BME280;34313;50.780;6.084;2023-03-25T09:55:10;98482.94;;;14.25;57.40
9189;BME280;34313;50.780;6.084;2023-03-25T09:57:45;98464.25;;;14.07;56.92
9189;BME280;34313;50.780;6.084;2023-03-25T10:00:17;98478.97;;;14.69;54.86
9189;BME280;34313;50.780;6.084;2023-03-25T10:03:05;98477.25;;;14.88;54.93
9189;BME280;34313;50.780;6.084;2023-03-25T10:08:24;98479.63;;;14.81;54.06
9189;BME280;34313;50.780;6.084;2023-03-25T10:11:12;98506.22;;;14.21;56.17
9189;BME280;34313;50.780;6.084;2023-03-25T10:13:57;98516.66;;;14.03;59.13
9189;BME280;34313;50.780;6.084;2023-03-25T10:19:54;98503.03;;;14.17;60.56
9189;BME280;34313;50.780;6.084;2023-03-25T10:24:58;98509.78;;;14.70;57.81
9189;BME280;34313;50.780;6.084;2023-03-25T10:27:39;98510.34;;;14.64;58.08
9189;BME280;34313;50.780;6.084;2023-03-25T10:30:52;98519.09;;;14.45;58.21
9189;BME280;34313;50.780;6.084;2023-03-25T10:33:38;98505.56;;;14.38;58.24
9189;BME280;34313;50.780;6.084;2023-03-25T10:36:06;98519.34;;;14.23;58.08
9189;BME280;34313;50.780;6.084;2023-03-25T10:38:34;98507.28;;;14.69;57.32
9189;BME280;34313;50.780;6.084;2023-03-25T10:41:17;98503.31;;;15.02;56.81
9189;BME280;34313;50.780;6.084;2023-03-25T10:43:44;98515.50;;;14.85;56.30
9189;BME280;34313;50.780;6.084;2023-03-25T10:46:24;98507.56;;;14.66;56.77
9189;BME280;34313;50.780;6.084;2023-03-25T10:48:51;98507.81;;;14.43;57.21
9189;BME280;34313;50.780;6.084;2023-03-25T10:51:24;98507.59;;;14.06;58.52
9189;BME280;34313;50.780;6.084;2023-03-25T10:53:51;98494.47;;;13.94;58.74
9189;BME280;34313;50.780;6.084;2023-03-25T10:56:25;98520.22;;;13.83;59.64
9189;BME280;34313;50.780;6.084;2023-03-25T10:58:55;98517.19;;;13.56;59.69
9189;BME280;34313;50.780;6.084;2023-03-25T11:01:37;98511.00;;;13.46;60.43
9189;BME280;34313;50.780;6.084;2023-03-25T11:04:08;98504.19;;;13.43;60.77
9189;BME280;34313;50.780;6.084;2023-03-25T11:06:39;98504.88;;;13.46;61.31
9189;BME280;34313;50.780;6.084;2023-03-25T11:09:22;98514.28;;;13.59;60.83
9189;BME280;34313;50.780;6.084;2023-03-25T11:11:48;98506.28;;;13.29;60.84
9189;BME280;34313;50.780;6.084;2023-03-25T11:14:14;98521.44;;;13.38;61.07
9189;BME280;34313;50.780;6.084;2023-03-25T11:16:45;98523.66;;;13.21;62.94
9189;BME280;34313;50.780;6.084;2023-03-25T11:19:24;98522.75;;;12.90;65.25
9189;BME280;34313;50.780;6.084;2023-03-25T11:21:54;98507.16;;;13.29;64.93
9189;BME280;34313;50.780;6.084;2023-03-25T11:24:22;98519.38;;;13.30;64.31
9189;BME280;34313;50.780;6.084;2023-03-25T11:26:52;98518.69;;;13.28;64.11
9189;BME280;34313;50.780;6.084;2023-03-25T11:29:19;98526.16;;;13.34;63.63
9189;BME280;34313;50.780;6.084;2023-03-25T11:32:11;98524.75;;;13.71;62.28
9189;BME280;34313;50.780;6.084;2023-03-25T11:34:38;98511.19;;;13.85;60.72
9189;BME280;34313;50.780;6.084;2023-03-25T11:37:15;98519.72;;;13.98;61.09
9189;BME280;34313;50.780;6.084;2023-03-25T11:39:41;98522.56;;;14.16;59.19
9189;BME280;34313;50.780;6.084;2023-03-25T11:44:54;98504.16;;;14.25;55.90
9189;BME280;34313;50.780;6.084;2023-03-25T11:47:39;98508.38;;;14.47;54.30
9189;BME280;34313;50.780;6.084;2023-03-25T11:50:06;98512.03;;;14.75;53.46
9189;BME280;34313;50.780;6.084;2023-03-25T11:52:43;98505.03;;;14.74;52.97
9189;BME280;34313;50.780;6.084;2023-03-25T11:55:24;98504.50;;;14.80;52.52
9189;BME280;34313;50.780;6.084;2023-03-25T11:57:51;98494.72;;;14.61;51.95
9189;BME280;34313;50.780;6.084;2023-03-25T12:03:04;98507.56;;;14.66;53.67
9189;BME280;34313;50.780;6.084;2023-03-25T12:05:31;98499.34;;;14.59;54.67
9189;BME280;34313;50.780;6.084;2023-03-25T12:08:10;98516.63;;;14.73;54.46
9189;BME280;34313;50.780;6.084;2023-03-25T12:10:52;98510.72;;;14.40;53.60
9189;BME280;34313;50.780;6.084;2023-03-25T12:13:27;98513.56;;;14.78;52.56
9189;BME280;34313;50.780;6.084;2023-03-25T12:22:43;98499.25;;;15.18;50.97
9189;BME280;34313;50.780;6.084;2023-03-25T12:25:35;98495.22;;;15.13;50.78
9189;BME280;34313;50.780;6.084;2023-03-25T12:33:56;98471.13;;;14.68;51.53
9189;BME280;34313;50.780;6.084;2023-03-25T12:41:55;98447.00;;;14.61;50.91
9189;BME280;34313;50.780;6.084;2023-03-25T12:44:45;98444.72;;;14.86;50.79
9189;BME280;34313;50.780;6.084;2023-03-25T12:47:17;98446.81;;;14.82;52.25
9189;BME280;34313;50.780;6.084;2023-03-25T12:57:44;98430.06;;;14.04;51.62
9189;BME280;34313;50.780;6.084;2023-03-25T13:00:35;98425.31;;;14.07;51.42
9189;BME280;34313;50.780;6.084;2023-03-25T13:03:34;98419.28;;;13.66;50.75
9189;BME280;34313;50.780;6.084;2023-03-25T13:06:16;98430.88;;;13.34;50.71
9189;BME280;34313;50.780;6.084;2023-03-25T13:09:00;98457.91;;;13.17;51.39
9189;BME280;34313;50.780;6.084;2023-03-25T13:11:33;98446.69;;;13.03;54.93
9189;BME280;34313;50.780;6.084;2023-03-25T13:14:07;98444.94;;;13.14;55.75
9189;BME280;34313;50.780;6.084;2023-03-25T13:16:36;98459.28;;;12.90;56.05
9189;BME280;34313;50.780;6.084;2023-03-25T13:19:09;98475.72;;;12.73;58.66
9189;BME280;34313;50.780;6.084;2023-03-25T13:21:38;98487.88;;;12.43;58.96
9189;BME280;34313;50.780;6.084;2023-03-25T13:24:09;98494.09;;;12.21;62.22
9189;BME280;34313;50.780;6.084;2023-03-25T13:26:38;98526.78;;;12.08;64.22
9189;BME280;34313;50.780;6.084;2023-03-25T13:29:08;98560.75;;;11.68;71.75
9189;BME280;34313;50.780;6.084;2023-03-25T13:31:39;98548.66;;;11.07;78.89
9189;BME280;34313;50.780;6.084;2023-03-25T13:34:29;98519.50;;;10.62;82.93
9189;BME280;34313;50.780;6.084;2023-03-25T13:37:01;98533.22;;;10.43;85.74
9189;BME280;34313;50.780;6.084;2023-03-25T13:42:23;98523.09;;;11.08;82.24
9189;BME280;34313;50.780;6.084;2023-03-25T13:44:52;98522.56;;;11.38;79.39
9189;BME280;34313;50.780;6.084;2023-03-25T13:47:24;98512.72;;;11.51;78.62
9189;BME280;34313;50.780;6.084;2023-03-25T13:52:49;98524.25;;;11.84;76.40
9189;BME280;34313;50.780;6.084;2023-03-25T13:55:20;98527.84;;;12.06;77.01
9189;BME280;34313;50.780;6.084;2023-03-25T13:58:03;98514.91;;;11.91;77.79
9189;BME280;34313;50.780;6.084;2023-03-25T14:03:34;98515.09;;;12.22;78.24
9189;BME280;34313;50.780;6.084;2023-03-25T14:11:37;98518.44;;;12.57;72.90
9189;BME280;34313;50.780;6.084;2023-03-25T14:14:13;98506.50;;;12.74;71.30
9189;BME280;34313;50.780;6.084;2023-03-25T14:16:44;98498.13;;;13.11;70.95
9189;BME280;34313;50.780;6.084;2023-03-25T14:19:14;98493.97;;;13.18;68.65
9189;BME280;34313;50.780;6.084;2023-03-25T14:21:45;98486.13;;;13.58;68.37
9189;BME280;34313;50.780;6.084;2023-03-25T14:24:25;98486.91;;;13.80;66.20
9189;BME280;34313;50.780;6.084;2023-03-25T14:29:34;98489.34;;;14.12;64.30
9189;BME280;34313;50.780;6.084;2023-03-25T14:34:46;98497.44;;;13.60;62.37
9189;BME280;34313;50.780;6.084;2023-03-25T14:37:17;98489.38;;;13.41;63.92
9189;BME280;34313;50.780;6.084;2023-03-25T14:39:43;98515.53;;;13.13;64.98
9189;BME280;34313;50.780;6.084;2023-03-25T14:42:39;98512.91;;;13.34;64.80
9189;BME280;34313;50.780;6.084;2023-03-25T14:45:36;98513.84;;;13.12;64.60
9189;BME280;34313;50.780;6.084;2023-03-25T14:48:05;98508.69;;;13.11;64.80
9189;BME280;34313;50.780;6.084;2023-03-25T14:50:35;98506.69;;;13.24;65.78
9189;BME280;34313;50.780;6.084;2023-03-25T14:53:04;98503.34;;;13.43;64.13
9189;BME280;34313;50.780;6.084;2023-03-25T14:55:43;98522.47;;;13.56;62.80
9189;BME280;34313;50.780;6.084;2023-03-25T14:58:25;98512.19;;;13.63;60.94
9189;BME280;34313;50.780;6.084;2023-03-25T15:00:58;98515.81;;;13.62;61.53
9189;BME280;34313;50.780;6.084;2023-03-25T15:03:32;98518.38;;;13.42;59.78
9189;BME280;34313;50.780;6.084;2023-03-25T15:06:00;98521.00;;;13.21;61.60
9189;BME280;34313;50.780;6.084;2023-03-25T15:08:35;98515.00;;;13.19;61.30